createdAt,value
2018-09-14T00:01:00.852Z,101773.04
2018-09-14T00:02:06.445Z,101777.79
2018-09-14T00:03:11.872Z,101774.86
2018-09-14T00:04:17.275Z,101775.77
2018-09-14T00:05:22.718Z,101773.66
2018-09-14T00:06:28.124Z,101773.25
2018-09-14T00:07:33.580Z,101771.56
2018-09-14T00:08:39.020Z,101768.19
2018-09-14T00:09:44.492Z,101766.00
2018-09-14T00:10:49.950Z,101770.34
2018-09-14T00:11:55.344Z,101769.11
2018-09-14T00:13:00.752Z,101768.69
2018-09-14T00:14:06.498Z,101769.98
2018-09-14T00:15:11.940Z,101765.73
2018-09-14T00:16:17.336Z,101766.64
2018-09-14T00:17:23.005Z,101763.27
2018-09-14T00:18:28.422Z,101757.33
2018-09-14T00:19:33.845Z,101763.34
2018-09-14T00:20:39.262Z,101760.78
2018-09-14T00:21:44.664Z,101762.47
2018-09-14T00:22:50.425Z,101762.06
2018-09-14T00:23:55.945Z,101760.43
2018-09-14T00:25:01.365Z,101758.31
2018-09-14T00:26:06.894Z,101756.14
2018-09-14T00:27:12.352Z,101754.86
2018-09-14T00:28:18.246Z,101757.40
2018-09-14T00:29:23.680Z,101752.22
2018-09-14T00:30:29.145Z,101757.34
2018-09-14T00:31:34.561Z,101748.36
2018-09-14T00:32:39.959Z,101754.77
2018-09-14T00:33:45.458Z,101753.09
2018-09-14T00:34:50.881Z,101750.53
2018-09-14T00:35:56.256Z,101751.84
2018-09-14T00:37:01.801Z,101746.33
2018-09-14T00:38:07.237Z,101748.46
2018-09-14T00:39:13.043Z,101748.52
2018-09-14T00:40:18.797Z,101746.81
2018-09-14T00:41:24.321Z,101743.49
2018-09-14T00:42:29.737Z,101744.02
2018-09-14T00:43:35.168Z,101743.19
2018-09-14T00:44:40.953Z,101742.75
2018-09-14T00:45:46.390Z,101741.84
2018-09-14T00:46:51.805Z,101745.30
2018-09-14T00:47:57.243Z,101748.31
2018-09-14T00:49:02.832Z,101744.94
2018-09-14T00:50:08.301Z,101745.33
2018-09-14T00:51:13.716Z,101744.88
2018-09-14T00:52:19.146Z,101738.08
2018-09-14T00:53:24.513Z,101738.52
2018-09-14T00:54:29.925Z,101741.91
2018-09-14T00:55:35.508Z,101742.32
2018-09-14T00:56:41.284Z,101744.09
2018-09-14T00:57:46.697Z,101741.94
2018-09-14T00:58:52.095Z,101737.70
2018-09-14T00:59:57.500Z,101733.81
2018-09-14T01:01:02.899Z,101736.81
2018-09-14T01:02:08.338Z,101733.86
2018-09-14T01:03:13.786Z,101736.42
2018-09-14T01:04:19.217Z,101740.27
2018-09-14T01:05:24.679Z,101738.09
2018-09-14T01:06:30.064Z,101737.26
2018-09-14T01:07:36.383Z,101739.84
2018-09-14T01:08:41.898Z,101739.89
2018-09-14T01:09:47.304Z,101735.21
2018-09-14T01:10:52.812Z,101737.79
2018-09-14T01:11:59.460Z,101739.07
2018-09-14T01:13:04.883Z,101741.64
2018-09-14T01:14:10.348Z,101734.00
2018-09-14T01:15:15.791Z,101736.52
2018-09-14T01:16:21.220Z,101741.24
2018-09-14T01:17:26.658Z,101739.97
2018-09-14T01:18:32.337Z,101737.42
2018-09-14T01:19:37.740Z,101736.14
2018-09-14T01:20:43.236Z,101732.30
2018-09-14T01:21:48.728Z,101733.58
2018-09-14T01:22:54.153Z,101737.41
2018-09-14T01:23:59.852Z,101739.52
2018-09-14T01:25:05.377Z,101740.48
2018-09-14T01:26:10.874Z,101736.66
2018-09-14T01:27:16.412Z,101739.70
2018-09-14T01:28:21.924Z,101734.55
2018-09-14T01:29:27.384Z,101737.10
2018-09-14T01:30:32.820Z,101735.41
2018-09-14T01:31:38.276Z,101738.00
2018-09-14T01:32:43.768Z,101735.48
2018-09-14T01:33:49.151Z,101736.27
2018-09-14T01:34:54.961Z,101735.42
2018-09-14T01:36:05.484Z,101735.03
2018-09-14T01:37:10.897Z,101734.61
2018-09-14T01:38:16.257Z,101729.92
2018-09-14T01:39:21.712Z,101734.59
2018-09-14T01:40:27.148Z,101728.20
2018-09-14T01:41:32.638Z,101728.24
2018-09-14T01:42:38.022Z,101728.24
2018-09-14T01:43:43.393Z,101724.41
2018-09-14T01:44:48.814Z,101726.53
2018-09-14T01:45:54.264Z,101725.66
2018-09-14T01:46:59.685Z,101729.50
2018-09-14T01:48:05.097Z,101726.09
2018-09-14T01:49:10.544Z,101729.50
2018-09-14T01:50:15.953Z,101725.66
2018-09-14T01:51:21.399Z,101723.98
2018-09-14T01:52:26.786Z,101729.10
2018-09-14T01:53:32.190Z,101725.25
2018-09-14T01:54:37.553Z,101723.53
2018-09-14T01:55:42.984Z,101719.69
2018-09-14T01:56:48.678Z,101715.02
2018-09-14T01:57:54.220Z,101717.13
2018-09-14T01:58:59.650Z,101717.55
2018-09-14T02:00:06.000Z,101718.84
2018-09-14T02:01:11.468Z,101719.23
2018-09-14T02:02:16.964Z,101712.39
2018-09-14T02:03:22.370Z,101713.22
2018-09-14T02:04:27.757Z,101717.50
2018-09-14T02:05:33.216Z,101714.06
2018-09-14T02:06:38.638Z,101709.82
2018-09-14T02:07:44.034Z,101710.66
2018-09-14T02:08:49.485Z,101708.55
2018-09-14T02:09:54.960Z,101711.16
2018-09-14T02:11:00.381Z,101711.17
2018-09-14T02:12:05.813Z,101706.47
2018-09-14T02:13:11.192Z,101704.80
2018-09-14T02:14:16.593Z,101700.14
2018-09-14T02:15:22.057Z,101701.02
2018-09-14T02:16:27.446Z,101704.02
2018-09-14T02:17:32.849Z,101696.35
2018-09-14T02:18:38.268Z,101698.02
2018-09-14T02:19:43.685Z,101695.02
2018-09-14T02:20:49.117Z,101699.74
2018-09-14T02:21:54.896Z,101698.06
2018-09-14T02:23:00.280Z,101701.47
2018-09-14T02:24:05.764Z,101697.63
2018-09-14T02:25:11.656Z,101698.47
2018-09-14T02:26:17.051Z,101700.17
2018-09-14T02:27:22.543Z,101698.06
2018-09-14T02:28:27.949Z,101695.95
2018-09-14T02:29:33.329Z,101693.39
2018-09-14T02:30:38.729Z,101695.13
2018-09-14T02:31:44.185Z,101694.28
2018-09-14T02:32:49.734Z,101690.45
2018-09-14T02:33:55.113Z,101695.16
2018-09-14T02:35:00.565Z,101689.66
2018-09-14T02:36:05.973Z,101686.66
2018-09-14T02:37:11.410Z,101687.09
2018-09-14T02:38:16.923Z,101687.49
2018-09-14T02:39:22.298Z,101690.05
2018-09-14T02:40:27.701Z,101687.55
2018-09-14T02:41:33.079Z,101687.98
2018-09-14T02:42:38.489Z,101687.54
2018-09-14T02:43:43.907Z,101687.54
2018-09-14T02:44:49.278Z,101687.09
2018-09-14T02:45:54.708Z,101690.94
2018-09-14T02:47:00.103Z,101683.30
2018-09-14T02:48:05.592Z,101682.03
2018-09-14T02:49:10.974Z,101687.14
2018-09-14T02:50:16.380Z,101690.58
2018-09-14T02:51:21.780Z,101683.34
2018-09-14T02:52:27.168Z,101688.42
2018-09-14T02:53:32.671Z,101688.86
2018-09-14T02:54:38.160Z,101690.58
2018-09-14T02:55:43.648Z,101691.45
2018-09-14T02:56:49.165Z,101696.56
2018-09-14T02:57:54.573Z,101685.50
2018-09-14T02:58:59.989Z,101689.33
2018-09-14T03:00:06.514Z,101682.10
2018-09-14T03:01:11.895Z,101686.34
2018-09-14T03:02:17.335Z,101680.82
2018-09-14T03:03:22.755Z,101680.82
2018-09-14T03:04:28.177Z,101681.23
2018-09-14T03:05:33.767Z,101677.80
2018-09-14T03:06:39.216Z,101679.11
2018-09-14T03:07:44.730Z,101685.94
2018-09-14T03:08:50.136Z,101678.70
2018-09-14T03:09:55.613Z,101680.42
2018-09-14T03:11:01.085Z,101679.98
2018-09-14T03:12:06.541Z,101673.59
2018-09-14T03:13:11.964Z,101672.31
2018-09-14T03:14:17.367Z,101670.16
2018-09-14T03:15:22.817Z,101671.04
2018-09-14T03:16:28.338Z,101665.08
2018-09-14T03:17:33.761Z,101662.93
2018-09-14T03:18:39.184Z,101661.25
2018-09-14T03:19:44.617Z,101666.77
2018-09-14T03:20:50.022Z,101665.92
2018-09-14T03:21:55.462Z,101671.04
2018-09-14T03:23:00.937Z,101668.92
2018-09-14T03:24:06.564Z,101662.96
2018-09-14T03:25:11.978Z,101663.41
2018-09-14T03:26:17.393Z,101660.87
2018-09-14T03:27:22.802Z,101656.17
2018-09-14T03:28:28.392Z,101663.84
2018-09-14T03:29:33.841Z,101658.70
2018-09-14T03:30:39.324Z,101655.73
2018-09-14T03:31:44.742Z,101662.12
2018-09-14T03:32:50.169Z,101660.41
2018-09-14T03:33:55.692Z,101660.00
2018-09-14T03:35:01.161Z,101662.12
2018-09-14T03:36:07.219Z,101660.00
2018-09-14T03:37:12.584Z,101664.27
2018-09-14T03:38:18.335Z,101672.38
2018-09-14T03:39:23.766Z,101666.83
2018-09-14T03:40:29.126Z,101668.98
2018-09-14T03:41:34.548Z,101671.09
2018-09-14T03:42:39.990Z,101668.14
2018-09-14T03:43:45.465Z,101668.54
2018-09-14T03:44:50.901Z,101668.10
2018-09-14T03:45:56.330Z,101670.69
2018-09-14T03:47:01.760Z,101668.57
2018-09-14T03:48:07.236Z,101665.58
2018-09-14T03:49:12.673Z,101671.97
2018-09-14T03:50:18.048Z,101669.41
2018-09-14T03:51:24.369Z,101670.69
2018-09-14T03:52:29.760Z,101670.25
2018-09-14T03:53:35.241Z,101672.38
2018-09-14T03:54:40.722Z,101676.20
2018-09-14T03:55:46.148Z,101673.65
2018-09-14T03:56:51.573Z,101677.91
2018-09-14T03:57:56.993Z,101673.23
2018-09-14T03:59:02.490Z,101674.55
2018-09-14T04:00:08.293Z,101674.55
2018-09-14T04:01:13.817Z,101674.11
2018-09-14T04:02:19.233Z,101672.83
2018-09-14T04:03:24.889Z,101675.38
2018-09-14T04:04:30.460Z,101671.55
2018-09-14T04:05:36.112Z,101671.98
2018-09-14T04:06:41.652Z,101672.39
2018-09-14T04:07:47.241Z,101675.39
2018-09-14T04:08:52.629Z,101672.40
2018-09-14T04:09:58.081Z,101666.45
2018-09-14T04:11:03.474Z,101670.28
2018-09-14T04:12:08.877Z,101671.53
2018-09-14T04:13:14.298Z,101670.28
2018-09-14T04:14:19.729Z,101671.96
2018-09-14T04:15:25.138Z,101670.69
2018-09-14T04:16:30.530Z,101668.56
2018-09-14T04:17:36.268Z,101668.13
2018-09-14T04:18:41.672Z,101666.85
2018-09-14T04:19:47.048Z,101670.28
2018-09-14T04:20:52.453Z,101668.56
2018-09-14T04:21:57.841Z,101671.55
2018-09-14T04:23:03.296Z,101670.30
2018-09-14T04:24:08.782Z,101663.48
2018-09-14T04:25:14.141Z,101669.44
2018-09-14T04:26:19.597Z,101661.77
2018-09-14T04:27:24.965Z,101657.50
2018-09-14T04:28:30.518Z,101661.34
2018-09-14T04:29:35.933Z,101662.17
2018-09-14T04:30:41.381Z,101663.89
2018-09-14T04:31:46.926Z,101664.76
2018-09-14T04:32:52.350Z,101662.64
2018-09-14T04:33:57.817Z,101664.78
2018-09-14T04:35:03.636Z,101666.44
2018-09-14T04:36:09.096Z,101665.19
2018-09-14T04:37:14.489Z,101662.20
2018-09-14T04:38:19.953Z,101668.16
2018-09-14T04:39:25.552Z,101663.05
2018-09-14T04:40:30.998Z,101664.73
2018-09-14T04:41:36.622Z,101671.12
2018-09-14T04:42:42.037Z,101667.72
2018-09-14T04:43:47.732Z,101667.31
2018-09-14T04:44:53.124Z,101666.44
2018-09-14T04:45:58.821Z,101669.44
2018-09-14T04:47:04.252Z,101672.42
2018-09-14T04:48:09.624Z,101671.55
2018-09-14T04:49:15.021Z,101671.98
2018-09-14T04:50:20.502Z,101678.39
2018-09-14T04:51:25.950Z,101679.27
2018-09-14T04:52:31.273Z,101679.25
2018-09-14T04:53:36.680Z,101677.98
2018-09-14T04:54:42.162Z,101680.51
2018-09-14T04:55:47.565Z,101680.51
2018-09-14T04:56:53.098Z,101677.98
2018-09-14T04:57:58.673Z,101679.25
2018-09-14T04:59:04.144Z,101680.10
2018-09-14T05:00:09.674Z,101677.55
2018-09-14T05:01:15.144Z,101678.41
2018-09-14T05:02:20.561Z,101675.40
2018-09-14T05:03:26.002Z,101678.83
2018-09-14T05:04:31.433Z,101669.86
2018-09-14T05:05:37.097Z,101678.83
2018-09-14T05:06:42.505Z,101672.44
2018-09-14T05:07:47.888Z,101669.89
2018-09-14T05:08:53.318Z,101674.56
2018-09-14T05:09:58.829Z,101671.56
2018-09-14T05:11:04.308Z,101671.59
2018-09-14T05:12:09.829Z,101674.56
2018-09-14T05:13:15.413Z,101671.57
2018-09-14T05:14:20.915Z,101678.39
2018-09-14T05:15:26.410Z,101681.80
2018-09-14T05:16:31.821Z,101672.42
2018-09-14T05:17:37.227Z,101674.13
2018-09-14T05:18:42.757Z,101680.09
2018-09-14T05:19:48.817Z,101677.09
2018-09-14T05:20:54.314Z,101676.23
2018-09-14T05:21:59.809Z,101678.38
2018-09-14T05:23:05.373Z,101679.23
2018-09-14T05:24:10.861Z,101674.52
2018-09-14T05:25:16.337Z,101673.68
2018-09-14T05:26:21.721Z,101677.07
2018-09-14T05:27:27.181Z,101677.95
2018-09-14T05:28:32.585Z,101677.07
2018-09-14T05:29:38.202Z,101677.07
2018-09-14T05:30:43.868Z,101673.68
2018-09-14T05:31:49.268Z,101676.23
2018-09-14T05:32:55.171Z,101673.65
2018-09-14T05:34:00.590Z,101678.36
2018-09-14T05:35:06.229Z,101674.52
2018-09-14T05:36:11.640Z,101676.20
2018-09-14T05:37:17.069Z,101678.77
2018-09-14T05:38:22.613Z,101674.49
2018-09-14T05:39:28.128Z,101683.01
2018-09-14T05:40:33.566Z,101682.57
2018-09-14T05:41:38.965Z,101676.18
2018-09-14T05:42:44.526Z,101683.81
2018-09-14T05:43:50.413Z,101682.54
2018-09-14T05:44:55.883Z,101678.70
2018-09-14T05:46:01.333Z,101682.97
2018-09-14T05:47:07.426Z,101683.81
2018-09-14T05:48:13.557Z,101680.83
2018-09-14T05:49:18.973Z,101680.39
2018-09-14T05:50:24.537Z,101687.62
2018-09-14T05:51:29.933Z,101684.63
2018-09-14T05:52:35.450Z,101679.11
2018-09-14T05:53:40.821Z,101687.22
2018-09-14T05:54:47.302Z,101682.54
2018-09-14T05:55:52.760Z,101681.27
2018-09-14T05:56:58.216Z,101677.86
2018-09-14T05:58:03.626Z,101682.54
2018-09-14T05:59:09.178Z,101682.10
2018-09-14T06:00:14.666Z,101684.66
2018-09-14T06:01:20.276Z,101684.66
2018-09-14T06:02:25.805Z,101684.66
2018-09-14T06:03:31.197Z,101682.10
2018-09-14T06:04:36.672Z,101688.05
2018-09-14T06:05:42.121Z,101685.91
2018-09-14T06:06:47.520Z,101685.06
2018-09-14T06:07:53.089Z,101679.95
2018-09-14T06:08:58.517Z,101678.19
2018-09-14T06:10:03.973Z,101681.14
2018-09-14T06:11:09.708Z,101676.47
2018-09-14T06:12:15.120Z,101682.82
2018-09-14T06:13:20.615Z,101678.98
2018-09-14T06:14:26.121Z,101678.09
2018-09-14T06:15:31.525Z,101680.65
2018-09-14T06:16:37.284Z,101678.89
2018-09-14T06:17:42.813Z,101686.55
2018-09-14T06:18:48.750Z,101687.78
2018-09-14T06:19:54.520Z,101682.66
2018-09-14T06:20:59.984Z,101683.44
2018-09-14T06:22:05.453Z,101685.16
2018-09-14T06:23:10.878Z,101684.30
2018-09-14T06:24:16.338Z,101690.68
2018-09-14T06:25:21.770Z,101689.35
2018-09-14T06:26:27.160Z,101688.88
2018-09-14T06:27:32.529Z,101687.11
2018-09-14T06:28:37.929Z,101684.08
2018-09-14T06:29:43.393Z,101687.46
2018-09-14T06:30:48.893Z,101690.41
2018-09-14T06:31:54.349Z,101689.94
2018-09-14T06:32:59.814Z,101688.59
2018-09-14T06:34:05.235Z,101687.23
2018-09-14T06:35:10.662Z,101686.76
2018-09-14T06:36:16.124Z,101694.42
2018-09-14T06:37:21.610Z,101691.41
2018-09-14T06:38:27.570Z,101691.34
2018-09-14T06:39:33.068Z,101689.58
2018-09-14T06:40:38.452Z,101693.35
2018-09-14T06:41:43.875Z,101689.47
2018-09-14T06:42:49.295Z,101687.28
2018-09-14T06:43:54.700Z,101688.08
2018-09-14T06:45:00.187Z,101689.28
2018-09-14T06:46:06.014Z,101694.74
2018-09-14T06:47:12.057Z,101691.24
2018-09-14T06:48:17.513Z,101690.77
2018-09-14T06:49:22.990Z,101684.65
2018-09-14T06:50:28.423Z,101689.73
2018-09-14T06:51:34.628Z,101689.73
2018-09-14T06:52:40.072Z,101685.41
2018-09-14T06:53:45.473Z,101690.09
2018-09-14T06:54:51.590Z,101684.42
2018-09-14T06:55:57.529Z,101682.67
2018-09-14T06:57:02.969Z,101686.86
2018-09-14T06:58:08.384Z,101686.78
2018-09-14T06:59:13.760Z,101683.76
2018-09-14T07:00:19.301Z,101680.63
2018-09-14T07:01:24.764Z,101681.84
2018-09-14T07:02:30.189Z,101680.42
2018-09-14T07:03:35.629Z,101680.42
2018-09-14T07:04:41.057Z,101679.04
2018-09-14T07:05:46.491Z,101684.98
2018-09-14T07:06:52.597Z,101675.05
2018-09-14T07:07:58.049Z,101679.66
2018-09-14T07:09:03.620Z,101685.23
2018-09-14T07:10:09.045Z,101683.46
2018-09-14T07:11:14.491Z,101675.01
2018-09-14T07:12:20.053Z,101675.01
2018-09-14T07:13:25.585Z,101677.09
2018-09-14T07:14:31.089Z,101678.34
2018-09-14T07:15:36.493Z,101676.72
2018-09-14T07:16:41.925Z,101679.12
2018-09-14T07:17:47.360Z,101686.20
2018-09-14T07:18:52.817Z,101680.88
2018-09-14T07:19:58.371Z,101686.74
2018-09-14T07:21:03.804Z,101686.22
2018-09-14T07:22:09.288Z,101685.23
2018-09-14T07:23:14.685Z,101685.09
2018-09-14T07:24:20.279Z,101691.84
2018-09-14T07:25:25.731Z,101692.09
2018-09-14T07:26:32.273Z,101691.13
2018-09-14T07:27:37.688Z,101689.23
2018-09-14T07:28:43.163Z,101690.45
2018-09-14T07:29:48.573Z,101692.88
2018-09-14T07:30:54.101Z,101697.47
2018-09-14T07:31:59.536Z,101692.16
2018-09-14T07:33:04.999Z,101692.92
2018-09-14T07:34:10.407Z,101699.70
2018-09-14T07:35:15.851Z,101701.69
2018-09-14T07:36:21.326Z,101698.11
2018-09-14T07:37:26.928Z,101701.97
2018-09-14T07:38:32.506Z,101703.95
2018-09-14T07:39:38.012Z,101705.14
2018-09-14T07:40:43.518Z,101703.31
2018-09-14T07:41:49.033Z,101700.54
2018-09-14T07:42:54.563Z,101707.34
2018-09-14T07:43:59.969Z,101707.19
2018-09-14T07:45:05.836Z,101707.47
2018-09-14T07:46:11.570Z,101713.82
2018-09-14T07:47:17.086Z,101714.58
2018-09-14T07:48:22.611Z,101710.10
2018-09-14T07:49:28.023Z,101718.52
2018-09-14T07:50:33.551Z,101712.83
2018-09-14T07:51:38.978Z,101718.33
2018-09-14T07:52:44.386Z,101715.66
2018-09-14T07:53:49.921Z,101718.63
2018-09-14T07:54:55.361Z,101723.97
2018-09-14T07:56:00.792Z,101718.66
2018-09-14T07:57:06.292Z,101722.30
2018-09-14T07:58:11.800Z,101725.98
2018-09-14T07:59:17.257Z,101726.17
2018-09-14T08:00:22.844Z,101722.59
2018-09-14T08:01:28.325Z,101722.84
2018-09-14T08:02:34.149Z,101722.17
2018-09-14T08:03:39.729Z,101722.59
2018-09-14T08:04:45.271Z,101719.07
2018-09-14T08:05:50.853Z,101720.12
2018-09-14T08:06:56.351Z,101715.56
2018-09-14T08:08:01.837Z,101720.17
2018-09-14T08:09:11.600Z,101721.74
2018-09-14T08:10:17.322Z,101719.47
2018-09-14T08:11:23.004Z,101721.91
2018-09-14T08:12:28.489Z,101723.83
2018-09-14T08:13:35.428Z,101719.39
2018-09-14T08:14:40.958Z,101717.50
2018-09-14T08:15:46.459Z,101716.41
2018-09-14T08:16:51.881Z,101719.60
2018-09-14T08:17:57.417Z,101723.70
2018-09-14T08:19:02.960Z,101720.47
2018-09-14T08:20:08.596Z,101721.57
2018-09-14T08:21:14.145Z,101726.47
2018-09-14T08:22:19.638Z,101727.98
2018-09-14T08:23:25.166Z,101726.88
2018-09-14T08:24:30.607Z,101728.16
2018-09-14T08:25:36.241Z,101725.05
2018-09-14T08:26:41.772Z,101729.59
2018-09-14T08:27:47.168Z,101730.27
2018-09-14T08:28:52.988Z,101731.94
2018-09-14T08:29:58.514Z,101730.06
2018-09-14T08:31:03.972Z,101729.86
2018-09-14T08:32:09.423Z,101727.56
2018-09-14T08:33:14.796Z,101728.47
2018-09-14T08:34:20.305Z,101734.39
2018-09-14T08:35:25.728Z,101735.40
2018-09-14T08:36:31.161Z,101736.14
2018-09-14T08:37:36.911Z,101731.35
2018-09-14T08:38:42.535Z,101731.72
2018-09-14T08:39:48.111Z,101734.52
2018-09-14T08:40:53.567Z,101732.30
2018-09-14T08:41:59.014Z,101737.10
2018-09-14T08:43:04.625Z,101736.55
2018-09-14T08:44:10.416Z,101733.30
2018-09-14T08:45:15.979Z,101730.66
2018-09-14T08:46:21.536Z,101733.50
2018-09-14T08:47:27.052Z,101730.03
2018-09-14T08:48:32.463Z,101738.87
2018-09-14T08:49:38.057Z,101735.97
2018-09-14T08:50:43.575Z,101729.08
2018-09-14T08:51:49.105Z,101741.52
2018-09-14T08:52:54.620Z,101728.02
2018-09-14T08:54:00.249Z,101728.95
2018-09-14T08:55:05.730Z,101735.90
2018-09-14T08:56:11.218Z,101733.50
2018-09-14T08:57:16.798Z,101732.80
2018-09-14T08:58:22.325Z,101733.49
2018-09-14T08:59:27.846Z,101732.46
2018-09-14T09:00:33.708Z,101729.55
2018-09-14T09:01:39.132Z,101734.02
2018-09-14T09:02:45.203Z,101738.91
2018-09-14T09:03:50.765Z,101731.36
2018-09-14T09:04:56.145Z,101732.66
2018-09-14T09:06:01.521Z,101731.18
2018-09-14T09:07:07.216Z,101734.81
2018-09-14T09:08:12.628Z,101736.43
2018-09-14T09:09:18.271Z,101737.01
2018-09-14T09:10:23.652Z,101731.63
2018-09-14T09:11:29.087Z,101734.39
2018-09-14T09:12:34.516Z,101734.75
2018-09-14T09:13:40.080Z,101739.64
2018-09-14T09:14:45.672Z,101736.80
2018-09-14T09:15:51.154Z,101741.98
2018-09-14T09:16:56.584Z,101741.41
2018-09-14T09:18:01.973Z,101740.25
2018-09-14T09:19:07.541Z,101739.80
2018-09-14T09:20:13.105Z,101738.28
2018-09-14T09:21:18.950Z,101735.71
2018-09-14T09:22:24.369Z,101735.91
2018-09-14T09:23:29.840Z,101737.88
2018-09-14T09:24:35.309Z,101740.20
2018-09-14T09:25:40.836Z,101732.58
2018-09-14T09:26:46.462Z,101736.11
2018-09-14T09:27:51.857Z,101735.11
2018-09-14T09:28:57.593Z,101729.15
2018-09-14T09:30:03.143Z,101735.12
2018-09-14T09:31:08.860Z,101733.54
2018-09-14T09:32:14.437Z,101737.23
2018-09-14T09:33:20.106Z,101730.52
2018-09-14T09:34:25.848Z,101732.73
2018-09-14T09:35:31.317Z,101732.02
2018-09-14T09:36:37.507Z,101729.59
2018-09-14T09:37:43.001Z,101733.62
2018-09-14T09:38:48.441Z,101730.57
2018-09-14T09:39:53.914Z,101725.09
2018-09-14T09:40:59.448Z,101723.78
2018-09-14T09:42:04.993Z,101727.81
2018-09-14T09:43:10.441Z,101733.20
2018-09-14T09:44:15.929Z,101730.73
2018-09-14T09:45:21.646Z,101726.11
2018-09-14T09:46:27.045Z,101734.55
2018-09-14T09:47:32.476Z,101728.77
2018-09-14T09:48:38.228Z,101732.39
2018-09-14T09:49:43.657Z,101727.32
2018-09-14T09:50:49.204Z,101732.39
2018-09-14T09:51:54.721Z,101729.14
2018-09-14T09:53:00.238Z,101733.66
2018-09-14T09:54:05.774Z,101731.28
2018-09-14T09:55:11.497Z,101730.62
2018-09-14T09:56:17.124Z,101734.55
2018-09-14T09:57:22.598Z,101734.53
2018-09-14T09:58:28.191Z,101732.23
2018-09-14T09:59:33.721Z,101729.17
2018-09-14T10:00:47.226Z,101731.52
2018-09-14T10:01:57.764Z,101727.45
2018-09-14T10:03:08.582Z,101731.77
2018-09-14T10:04:19.427Z,101734.08
2018-09-14T10:05:29.868Z,101729.52
2018-09-14T10:06:35.324Z,101720.88
2018-09-14T10:07:40.769Z,101723.02
2018-09-14T10:08:46.260Z,101716.26
2018-09-14T10:09:51.724Z,101721.63
2018-09-14T10:10:57.590Z,101717.91
2018-09-14T10:12:03.096Z,101719.73
2018-09-14T10:13:08.497Z,101721.47
2018-09-14T10:14:13.962Z,101722.31
2018-09-14T10:15:19.595Z,101719.45
2018-09-14T10:16:25.049Z,101720.22
2018-09-14T10:17:30.889Z,101720.69
2018-09-14T10:18:36.313Z,101716.84
2018-09-14T10:19:41.953Z,101716.61
2018-09-14T10:20:47.516Z,101714.17
2018-09-14T10:21:53.029Z,101716.88
2018-09-14T10:22:58.424Z,101713.41
2018-09-14T10:24:03.880Z,101712.38
2018-09-14T10:25:09.374Z,101707.61
2018-09-14T10:26:14.854Z,101714.21
2018-09-14T10:27:20.313Z,101711.17
2018-09-14T10:28:25.775Z,101710.41
2018-09-14T10:29:31.189Z,101715.34
2018-09-14T10:30:36.669Z,101710.83
2018-09-14T10:31:42.262Z,101712.13
2018-09-14T10:32:47.838Z,101710.98
2018-09-14T10:33:53.781Z,101708.45
2018-09-14T10:35:00.247Z,101710.92
2018-09-14T10:36:06.005Z,101711.52
2018-09-14T10:37:11.390Z,101708.45
2018-09-14T10:38:16.829Z,101714.89
2018-09-14T10:39:22.265Z,101705.11
2018-09-14T10:40:27.679Z,101703.89
2018-09-14T10:41:33.080Z,101702.75
2018-09-14T10:42:38.629Z,101698.23
2018-09-14T10:43:44.069Z,101697.91
2018-09-14T10:44:49.481Z,101697.70
2018-09-14T10:45:54.944Z,101690.76
2018-09-14T10:47:00.329Z,101698.65
2018-09-14T10:48:05.781Z,101696.62
2018-09-14T10:49:11.273Z,101692.03
2018-09-14T10:50:16.732Z,101696.41
2018-09-14T10:51:22.321Z,101694.13
2018-09-14T10:52:27.713Z,101692.28
2018-09-14T10:53:33.108Z,101689.28
2018-09-14T10:54:38.522Z,101688.41
2018-09-14T10:55:44.188Z,101697.09
2018-09-14T10:56:49.868Z,101690.79
2018-09-14T10:57:55.293Z,101690.33
2018-09-14T10:59:00.722Z,101688.80
2018-09-14T11:00:06.776Z,101689.95
2018-09-14T11:01:14.770Z,101688.03
2018-09-14T11:02:20.246Z,101684.26
2018-09-14T11:03:25.675Z,101685.44
2018-09-14T11:04:31.122Z,101683.98
2018-09-14T11:05:36.521Z,101680.91
2018-09-14T11:06:42.042Z,101678.03
2018-09-14T11:07:47.414Z,101673.86
2018-09-14T11:08:52.883Z,101671.64
2018-09-14T11:09:58.334Z,101675.91
2018-09-14T11:11:03.785Z,101673.70
2018-09-14T11:12:09.241Z,101667.48
2018-09-14T11:13:14.777Z,101672.08
2018-09-14T11:14:20.274Z,101671.80
2018-09-14T11:15:25.660Z,101671.03
2018-09-14T11:16:31.069Z,101665.90
2018-09-14T11:17:36.590Z,101672.48
2018-09-14T11:18:42.331Z,101674.39
2018-09-14T11:19:47.681Z,101671.86
2018-09-14T11:20:53.056Z,101668.78
2018-09-14T11:21:58.472Z,101661.64
2018-09-14T11:23:03.868Z,101662.72
2018-09-14T11:24:09.268Z,101662.53
2018-09-14T11:25:14.823Z,101661.97
2018-09-14T11:26:20.258Z,101661.14
2018-09-14T11:27:25.664Z,101655.26
2018-09-14T11:28:31.064Z,101656.09
2018-09-14T11:29:36.556Z,101655.19
2018-09-14T11:30:42.006Z,101653.77
2018-09-14T11:31:47.500Z,101651.84
2018-09-14T11:32:53.175Z,101656.41
2018-09-14T11:33:59.274Z,101656.32
2018-09-14T11:35:04.827Z,101650.73
2018-09-14T11:36:10.255Z,101648.46
2018-09-14T11:37:15.698Z,101645.70
2018-09-14T11:38:21.258Z,101641.00
2018-09-14T11:39:26.645Z,101638.99
2018-09-14T11:40:32.327Z,101639.70
2018-09-14T11:41:37.797Z,101647.06
2018-09-14T11:42:43.224Z,101644.95
2018-09-14T11:43:48.945Z,101637.25
2018-09-14T11:44:54.390Z,101646.39
2018-09-14T11:45:59.845Z,101637.98
2018-09-14T11:47:05.337Z,101645.39
2018-09-14T11:48:10.776Z,101639.84
2018-09-14T11:49:16.244Z,101635.69
2018-09-14T11:50:21.767Z,101639.55
2018-09-14T11:51:27.230Z,101639.24
2018-09-14T11:52:32.689Z,101630.97
2018-09-14T11:53:38.534Z,101631.88
2018-09-14T11:54:43.920Z,101635.67
2018-09-14T11:55:49.396Z,101631.42
2018-09-14T11:56:54.804Z,101636.13
2018-09-14T11:58:00.265Z,101639.89
2018-09-14T11:59:05.829Z,101636.38
2018-09-14T12:00:11.365Z,101627.28
2018-09-14T12:01:16.821Z,101626.30
2018-09-14T12:02:24.655Z,101626.92
2018-09-14T12:03:30.171Z,101625.78
2018-09-14T12:04:35.610Z,101624.47
2018-09-14T12:05:41.018Z,101618.81
2018-09-14T12:06:46.464Z,101619.01
2018-09-14T12:07:51.920Z,101616.20
2018-09-14T12:08:57.312Z,101621.45
2018-09-14T12:10:02.891Z,101619.52
2018-09-14T12:11:08.650Z,101620.73
2018-09-14T12:12:14.086Z,101618.12
2018-09-14T12:13:19.459Z,101620.09
2018-09-14T12:14:24.870Z,101621.86
2018-09-14T12:15:30.260Z,101612.16
2018-09-14T12:16:35.715Z,101609.91
2018-09-14T12:17:42.293Z,101610.71
2018-09-14T12:18:47.752Z,101611.82
2018-09-14T12:19:53.364Z,101609.82
2018-09-14T12:20:58.836Z,101609.63
2018-09-14T12:22:04.312Z,101606.46
2018-09-14T12:23:09.714Z,101606.46
2018-09-14T12:24:15.133Z,101602.30
2018-09-14T12:25:20.577Z,101601.19
2018-09-14T12:26:26.125Z,101602.48
2018-09-14T12:27:31.664Z,101603.69
2018-09-14T12:28:37.214Z,101596.05